Time;durP1;ratioP1;P1;durP2;ratioP2;P2;SDS_P1;SDS_P2;PMS_P1;PMS_P2;Temp;Humidity;BMP_temperature;BMP_pressure;BME280_temperature;BME280_humidity;BME280_pressure;Samples;Min_cycle;Max_cycle;Signal;HPM_P1;HPM_P2
2021/12/15 00:01:33;;;;;;;9.70;5.50;;;;;;;0.21;94.81;100287.45;106410;1316;137768;-60
2021/12/15 00:04:01;;;;;;;10.00;5.90;;;;;;;0.20;94.98;100286.41;106507;1313;22460;-60
2021/12/15 00:06:29;;;;;;;9.10;5.40;;;;;;;0.23;95.06;100289.36;106404;1317;138660;-60
2021/12/15 00:08:58;;;;;;;7.90;5.00;;;;;;;0.24;94.84;100289.77;106484;1316;22402;-60
2021/12/15 00:11:32;;;;;;;10.20;4.40;;;;;;;0.23;94.75;100292.85;106378;1313;138885;-60
2021/12/15 00:14:01;;;;;;;10.20;5.80;;;;;;;0.23;94.95;100293.31;106439;1318;22522;-60
2021/12/15 00:16:29;;;;;;;8.20;4.80;;;;;;;0.22;94.61;100296.05;106539;1317;23223;-60
2021/12/15 00:18:57;;;;;;;8.50;4.90;;;;;;;0.22;94.82;100297.63;106359;1317;137886;-60
2021/12/15 00:21:25;;;;;;;9.40;5.40;;;;;;;0.22;94.85;100297.17;106509;1317;22505;-60
2021/12/15 00:23:53;;;;;;;9.90;5.20;;;;;;;0.22;95.07;100297.00;106407;1319;138650;-60
2021/12/15 00:26:22;;;;;;;10.40;5.50;;;;;;;0.21;94.88;100289.05;106484;1318;23292;-60
2021/12/15 00:28:51;;;;;;;10.30;5.70;;;;;;;0.20;95.11;100289.80;106532;1319;22487;-60
2021/12/15 00:31:20;;;;;;;8.10;5.20;;;;;;;0.19;95.14;100289.20;106375;1316;138518;-60
2021/12/15 00:33:49;;;;;;;10.90;6.80;;;;;;;0.17;95.01;100287.73;106496;1319;22482;-60
2021/12/15 00:36:17;;;;;;;11.30;6.20;;;;;;;0.15;95.15;100289.14;106410;1316;139960;-60
2021/12/15 00:38:46;;;;;;;10.80;6.10;;;;;;;0.14;95.10;100293.21;106469;1316;22401;-60
2021/12/15 00:41:15;;;;;;;9.60;5.60;;;;;;;0.14;95.17;100289.30;106367;1317;138748;-60
2021/12/15 00:43:45;;;;;;;12.40;6.20;;;;;;;0.12;95.23;100289.17;106535;1316;22391;-60
2021/12/15 00:46:13;;;;;;;11.10;5.50;;;;;;;0.10;95.48;100286.39;106331;1316;22490;-60
2021/12/15 00:49:45;;;;;;;10.20;5.60;;;;;;;0.13;95.31;100290.37;99154;1354;544849;-58
2021/12/15 00:52:14;;;;;;;9.60;5.90;;;;;;;0.11;95.28;100293.93;101043;1329;25366;-58
2021/12/15 00:54:42;;;;;;;11.70;6.30;;;;;;;0.10;95.31;100295.86;101111;1330;137006;-58
2021/12/15 00:57:10;;;;;;;11.20;6.20;;;;;;;0.08;95.43;100293.73;102211;1316;23970;-59
2021/12/15 00:59:39;;;;;;;7.70;4.90;;;;;;;0.05;95.42;100299.38;102026;1315;137668;-59
2021/12/15 01:02:09;;;;;;;6.60;4.70;;;;;;;0.04;95.82;100302.06;102161;1315;22590;-58
2021/12/15 01:04:38;;;;;;;7.90;5.30;;;;;;;0.01;95.69;100297.67;106226;1316;22385;-60
2021/12/15 01:07:08;;;;;;;9.10;5.30;;;;;;;-0.02;95.69;100289.48;103021;1319;138372;-57
2021/12/15 01:09:52;;;;;;;8.90;5.80;;;;;;;-0.04;95.69;100285.79;106400;1315;23332;-60
2021/12/15 01:14:29;;;;;;;10.00;6.00;;;;;;;-0.07;95.81;100283.58;106337;1316;137376;-60
2021/12/15 01:21:34;;;;;;;9.60;5.80;;;;;;;-0.09;96.01;100269.05;106376;1316;22393;-60
2021/12/15 01:24:03;;;;;;;9.20;5.80;;;;;;;-0.11;95.90;100278.13;106352;1316;138703;-60
2021/12/15 01:26:31;;;;;;;9.90;6.30;;;;;;;-0.11;96.21;100280.83;106478;1319;22445;-60
2021/12/15 01:28:59;;;;;;;13.50;7.30;;;;;;;-0.11;96.23;100276.02;106301;1315;23209;-60
2021/12/15 01:31:28;;;;;;;9.90;6.40;;;;;;;-0.12;96.03;100266.80;105416;1315;137830;-60
2021/12/15 01:33:57;;;;;;;10.40;7.10;;;;;;;-0.11;96.33;100269.98;106419;1315;22597;-60
2021/12/15 01:36:24;;;;;;;13.60;8.10;;;;;;;-0.12;96.12;100268.32;106341;1316;138126;-60
2021/12/15 01:38:55;;;;;;;12.40;6.80;;;;;;;-0.13;96.15;100262.16;106427;1316;22472;-60
2021/12/15 01:41:23;;;;;;;14.70;8.50;;;;;;;-0.14;96.24;100255.13;105774;1316;138226;-60
2021/12/15 01:49:37;;;;;;;13.00;8.30;;;;;;;-0.19;96.24;100257.00;106181;1315;138946;-60
2021/12/15 01:52:29;;;;;;;13.00;8.50;;;;;;;-0.18;96.46;100266.50;106286;1315;23199;-59
2021/12/15 01:55:06;;;;;;;13.70;8.60;;;;;;;-0.17;96.09;100269.38;106176;1316;138500;-60
2021/12/15 01:57:35;;;;;;;13.30;8.70;;;;;;;-0.16;96.22;100271.59;106283;1315;23088;-60
2021/12/15 02:00:26;;;;;;;12.20;8.10;;;;;;;-0.15;96.34;100273.87;106066;1316;138508;-60
2021/12/15 02:02:56;;;;;;;13.00;8.20;;;;;;;-0.14;96.22;100275.45;106279;1316;23192;-60
2021/12/15 02:05:27;;;;;;;10.60;7.20;;;;;;;-0.14;96.55;100276.14;106098;1315;138663;-60
2021/12/15 02:07:55;;;;;;;13.00;7.30;;;;;;;-0.12;96.35;100273.87;106249;1315;22470;-60
2021/12/15 02:10:26;;;;;;;10.90;7.20;;;;;;;-0.11;96.50;100273.17;106259;1316;22480;-60
2021/12/15 02:12:57;;;;;;;11.30;7.90;;;;;;;-0.11;96.36;100276.52;106021;1316;138186;-59
2021/12/15 02:15:28;;;;;;;11.00;7.00;;;;;;;-0.10;96.42;100273.73;106263;1316;22633;-60
2021/12/15 02:17:57;;;;;;;10.90;5.60;;;;;;;-0.09;96.21;100274.14;106154;1317;139740;-60
2021/12/15 02:20:35;;;;;;;9.30;6.30;;;;;;;-0.09;96.18;100270.93;106156;1316;22413;-60
2021/12/15 02:23:05;;;;;;;9.50;5.80;;;;;;;-0.07;96.31;100267.24;106212;1316;22583;-60
2021/12/15 02:25:34;;;;;;;11.90;6.20;;;;;;;-0.08;95.92;100263.77;106102;1316;137787;-60
2021/12/15 02:28:03;;;;;;;9.30;6.80;;;;;;;-0.09;95.99;100260.80;106204;1316;22494;-60
2021/12/15 02:38:40;;;;;;;;;;;;;;;-0.10;95.61;100255.96;106218;1315;22559;-58
2021/12/15 02:41:19;;;;;;;16.10;6.80;;;;;;;-0.10;95.67;100253.79;106209;1316;22521;-58
2021/12/15 02:43:55;;;;;;;10.40;6.80;;;;;;;-0.12;95.81;100253.61;106158;1316;139165;-60
2021/12/15 02:46:24;;;;;;;13.30;7.00;;;;;;;-0.13;95.85;100253.78;106300;1315;23306;-60
2021/12/15 02:48:52;;;;;;;11.60;7.20;;;;;;;-0.14;95.60;100252.41;106131;1315;139667;-60
2021/12/15 02:51:21;;;;;;;14.20;8.50;;;;;;;-0.13;95.63;100261.05;106282;1316;22486;-58
2021/12/15 02:53:49;;;;;;;15.40;9.00;;;;;;;-0.13;95.63;100263.55;106135;1316;140315;-58
2021/12/15 02:56:17;;;;;;;12.40;7.40;;;;;;;-0.13;95.52;100270.66;106253;1316;22523;-58
2021/12/15 02:58:58;;;;;;;10.00;7.60;;;;;;;-0.11;95.53;100274.48;106246;1316;22621;-58
2021/12/15 03:15:37;;;;;;;11.00;7.50;;;;;;;-0.17;95.37;100279.89;105512;1327;22555;-58
2021/12/15 03:18:09;;;;;;;9.30;6.80;;;;;;;-0.17;95.30;100280.29;105426;1327;139995;-58
2021/12/15 03:20:48;;;;;;;12.20;7.40;;;;;;;-0.16;95.35;100278.95;105536;1327;23002;-58
2021/12/15 03:23:20;;;;;;;10.50;7.50;;;;;;;-0.16;95.33;100274.98;105554;1322;22342;-60
2021/12/15 03:25:48;;;;;;;11.00;7.40;;;;;;;-0.15;95.45;100269.17;105393;1324;139469;-60
2021/12/15 03:39:32;;;;;;;12.20;6.80;;;;;;;-0.16;95.35;100280.90;105571;1327;23153;-57
2021/12/15 03:42:04;;;;;;;10.80;7.00;;;;;;;-0.17;94.90;100280.00;105846;1321;140567;-57
2021/12/15 03:44:34;;;;;;;13.70;7.60;;;;;;;-0.20;95.04;100280.43;106285;1315;23192;-57
2021/12/15 03:47:03;;;;;;;11.40;8.40;;;;;;;-0.21;94.85;100283.98;106223;1316;22472;-57
2021/12/15 03:49:31;;;;;;;11.00;7.60;;;;;;;-0.22;94.93;100288.15;106232;1316;139684;-56
2021/12/15 03:51:59;;;;;;;13.00;6.70;;;;;;;-0.23;94.95;100293.31;106171;1316;22621;-55
2021/12/15 03:54:28;;;;;;;12.20;7.90;;;;;;;-0.23;94.82;100293.48;106243;1317;142578;-55
2021/12/15 03:56:56;;;;;;;15.40;7.40;;;;;;;-0.24;94.76;100293.07;106344;1316;22404;-54
2021/12/15 03:59:25;;;;;;;15.70;9.10;;;;;;;-0.26;94.82;100293.84;106342;1320;23316;-55
2021/12/15 04:01:53;;;;;;;12.60;7.90;;;;;;;-0.28;95.13;100298.34;106216;1316;138802;-54
2021/12/15 04:04:21;;;;;;;11.50;7.40;;;;;;;-0.29;95.05;100300.80;106319;1316;22402;-54
2021/12/15 04:06:50;;;;;;;11.40;7.00;;;;;;;-0.30;94.99;100300.73;103467;1320;139121;-60
2021/12/15 04:09:19;;;;;;;11.90;7.80;;;;;;;-0.32;94.99;100298.73;106133;1316;23264;-61
2021/12/15 04:11:47;;;;;;;16.10;8.50;;;;;;;-0.32;95.17;100299.83;106194;1316;139290;-60
2021/12/15 04:14:20;;;;;;;14.30;9.00;;;;;;;-0.32;94.92;100303.74;106356;1316;23260;-61
2021/12/15 04:17:03;;;;;;;16.20;9.10;;;;;;;-0.31;95.05;100305.48;106291;1315;22477;-61
2021/12/15 04:19:47;;;;;;;14.90;9.40;;;;;;;-0.33;95.19;100307.45;106248;1316;138402;-61
2021/12/15 04:22:16;;;;;;;20.80;11.30;;;;;;;-0.33;95.23;100307.79;106336;1316;23306;-61
2021/12/15 04:24:44;;;;;;;18.80;9.00;;;;;;;-0.33;95.19;100308.33;106056;1316;139962;-61
2021/12/15 04:27:22;;;;;;;16.10;8.70;;;;;;;-0.33;95.16;100308.70;106258;1316;22528;-60
2021/12/15 04:29:50;;;;;;;14.80;9.50;;;;;;;-0.35;95.26;100310.64;106134;1320;139576;-59
2021/12/15 04:32:34;;;;;;;17.10;9.90;;;;;;;-0.36;95.48;100313.98;106326;1315;22332;-59
2021/12/15 04:35:03;;;;;;;16.80;9.10;;;;;;;-0.38;95.31;100316.86;106361;1315;23345;-59
2021/12/15 04:37:32;;;;;;;16.10;9.90;;;;;;;-0.41;95.22;100316.24;106202;1316;138537;-59
2021/12/15 04:40:00;;;;;;;16.00;8.80;;;;;;;-0.41;95.49;100320.59;106338;1315;22489;-59
2021/12/15 04:42:29;;;;;;;21.70;11.20;;;;;;;-0.41;95.30;100327.02;106120;1316;139023;-58
2021/12/15 04:44:57;;;;;;;22.50;11.50;;;;;;;-0.41;95.32;100335.05;106346;1316;22473;-59
2021/12/15 04:47:25;;;;;;;22.80;12.60;;;;;;;-0.43;95.55;100337.80;106315;1316;22462;-58
2021/12/15 04:49:54;;;;;;;16.80;10.90;;;;;;;-0.44;95.34;100338.27;106235;1316;138037;-59
2021/12/15 04:52:24;;;;;;;16.90;9.00;;;;;;;-0.45;95.23;100344.04;106349;1317;22470;-59
2021/12/15 04:54:53;;;;;;;18.90;10.80;;;;;;;-0.45;95.38;100344.61;106199;1315;138977;-59
2021/12/15 04:57:22;;;;;;;15.60;10.20;;;;;;;-0.46;95.79;100340.42;106319;1315;22523;-59
2021/12/15 04:59:50;;;;;;;19.50;10.60;;;;;;;-0.46;95.51;100337.61;106214;1315;138515;-59
2021/12/15 05:02:19;;;;;;;21.50;12.70;;;;;;;-0.47;95.54;100338.05;106274;1316;22562;-59
2021/12/15 05:04:47;;;;;;;20.40;10.20;;;;;;;-0.47;95.59;100339.29;106297;1315;22368;-59
2021/12/15 05:07:16;;;;;;;16.80;10.10;;;;;;;-0.48;95.52;100347.25;106092;1315;138654;-59
2021/12/15 05:09:49;;;;;;;18.40;10.60;;;;;;;-0.48;95.43;100345.80;106298;1316;22400;-59
2021/12/15 05:12:18;;;;;;;21.00;10.20;;;;;;;-0.48;95.45;100343.16;106222;1316;139247;-59
2021/12/15 05:14:46;;;;;;;17.60;8.90;;;;;;;-0.48;95.49;100335.54;106374;1316;22490;-59
2021/12/15 05:17:14;;;;;;;16.50;8.60;;;;;;;-0.48;95.50;100337.41;102928;1316;22617;-54
2021/12/15 05:19:45;;;;;;;18.20;10.00;;;;;;;-0.47;95.36;100335.17;102183;1315;140364;-54
2021/12/15 05:22:14;;;;;;;15.60;7.60;;;;;;;-0.45;95.64;100337.79;102243;1316;23131;-54
2021/12/15 05:24:43;;;;;;;14.30;8.10;;;;;;;-0.43;95.46;100337.58;106325;1316;139944;-56
2021/12/15 05:27:13;;;;;;;13.60;8.80;;;;;;;-0.42;95.62;100340.89;106323;1316;23167;-56
2021/12/15 05:29:42;;;;;;;14.60;8.30;;;;;;;-0.40;95.49;100341.38;106215;1316;138418;-56
2021/12/15 05:32:11;;;;;;;14.50;8.90;;;;;;;-0.40;95.52;100341.65;106391;1316;22476;-56
2021/12/15 05:34:39;;;;;;;14.20;8.80;;;;;;;-0.40;95.28;100342.55;106394;1315;22477;-56
2021/12/15 05:37:08;;;;;;;15.70;9.20;;;;;;;-0.40;95.30;100343.52;106286;1317;139240;-56
2021/12/15 05:39:36;;;;;;;17.00;10.40;;;;;;;-0.40;95.31;100350.77;106341;1316;22595;-56
2021/12/15 05:42:05;;;;;;;16.30;9.80;;;;;;;-0.39;95.16;100351.02;106282;1316;139556;-56
2021/12/15 05:44:34;;;;;;;18.90;11.00;;;;;;;-0.40;94.94;100351.89;106386;1315;23289;-56
2021/12/15 05:47:03;;;;;;;17.20;10.20;;;;;;;-0.43;94.98;100359.92;106416;1315;22490;-60
2021/12/15 05:49:31;;;;;;;17.90;9.60;;;;;;;-0.46;94.85;100367.20;106267;1316;139066;-60
2021/12/15 05:52:00;;;;;;;17.70;9.80;;;;;;;-0.49;94.90;100367.89;106409;1316;22476;-60
2021/12/15 05:54:29;;;;;;;18.10;9.70;;;;;;;-0.53;94.63;100370.05;106243;1315;139802;-60
2021/12/15 05:56:57;;;;;;;16.80;9.00;;;;;;;-0.57;95.00;100371.95;106416;1316;22581;-60
2021/12/15 05:59:25;;;;;;;15.20;9.10;;;;;;;-0.59;94.71;100377.79;106425;1316;22368;-59
2021/12/15 06:01:58;;;;;;;15.20;8.80;;;;;;;-0.61;94.82;100380.85;106306;1316;139764;-59
2021/12/15 06:04:26;;;;;;;18.80;9.10;;;;;;;-0.60;94.86;100380.33;106391;1315;23291;-60
2021/12/15 06:06:54;;;;;;;13.10;7.90;;;;;;;-0.60;94.92;100382.13;106325;1316;138389;-60
2021/12/15 06:09:23;;;;;;;13.90;8.70;;;;;;;-0.61;94.89;100382.27;106293;1316;22583;-59
2021/12/15 06:11:53;;;;;;;12.10;7.60;;;;;;;-0.62;94.84;100383.64;106292;1316;139609;-60
2021/12/15 06:14:26;;;;;;;13.10;7.60;;;;;;;-0.62;94.87;100385.03;106398;1316;22545;-60
2021/12/15 06:17:07;;;;;;;11.80;7.20;;;;;;;-0.64;94.72;100387.14;106371;1316;22517;-60
2021/12/15 06:19:35;;;;;;;11.60;7.20;;;;;;;-0.65;94.87;100390.51;106283;1319;138487;-60
2021/12/15 06:22:09;;;;;;;10.10;6.80;;;;;;;-0.64;94.91;100392.88;106423;1315;22431;-60
2021/12/15 06:24:38;;;;;;;12.30;6.80;;;;;;;-0.63;94.65;100393.46;106165;1315;140241;-60
2021/12/15 06:27:16;;;;;;;12.50;7.50;;;;;;;-0.63;94.60;100393.89;106402;1316;22613;-60
2021/12/15 06:29:44;;;;;;;12.90;7.60;;;;;;;-0.63;94.65;100401.33;105363;1322;140579;-60
2021/12/15 06:32:12;;;;;;;11.30;7.90;;;;;;;-0.63;94.72;100398.81;106392;1316;23316;-59
2021/12/15 06:34:40;;;;;;;19.20;9.90;;;;;;;-0.61;94.97;100399.19;106405;1316;22307;-59
2021/12/15 06:37:08;;;;;;;15.70;9.30;;;;;;;-0.60;94.76;100399.56;106296;1316;138442;-59
2021/12/15 06:39:36;;;;;;;13.70;8.10;;;;;;;-0.60;94.82;100402.94;106384;1316;22538;-60
2021/12/15 06:42:05;;;;;;;12.90;8.40;;;;;;;-0.61;94.71;100407.05;106213;1316;140153;-59
2021/12/15 06:44:33;;;;;;;14.90;7.90;;;;;;;-0.60;94.68;100407.83;106392;1312;22395;-59
2021/12/15 06:47:22;;;;;;;11.80;8.60;;;;;;;-0.59;94.95;100408.92;106376;1316;22538;-59
2021/12/15 06:58:13;;;;;;;8.90;6.20;;;;;;;-0.70;94.53;100412.23;106387;1316;22455;-60
2021/12/15 07:00:44;;;;;;;8.60;6.30;;;;;;;-0.71;94.72;100415.57;106258;1316;139134;-60
2021/12/15 07:03:14;;;;;;;10.10;6.30;;;;;;;-0.72;94.80;100414.24;106267;1315;22368;-59
2021/12/15 07:05:42;;;;;;;13.20;8.20;;;;;;;-0.74;94.75;100417.30;105195;1322;138731;-60
2021/12/15 07:08:10;;;;;;;11.20;7.30;;;;;;;-0.73;94.64;100417.73;106335;1316;22475;-60
2021/12/15 07:10:44;;;;;;;11.50;7.20;;;;;;;-0.72;94.35;100416.16;106329;1315;23240;-60
2021/12/15 07:13:13;;;;;;;7.60;5.10;;;;;;;-0.73;94.55;100409.92;106250;1316;139302;-60
2021/12/15 07:15:41;;;;;;;10.50;6.00;;;;;;;-0.76;94.33;100412.90;106329;1316;22511;-60
2021/12/15 07:18:11;;;;;;;8.00;5.50;;;;;;;-0.79;94.37;100411.11;106231;1317;139440;-60
2021/12/15 07:20:44;;;;;;;9.00;5.50;;;;;;;-0.81;94.00;100418.83;106347;1315;22419;-60
2021/12/15 07:23:17;;;;;;;11.20;5.10;;;;;;;-0.82;94.05;100423.14;106261;1315;23195;-60
2021/12/15 07:25:46;;;;;;;7.10;4.10;;;;;;;-0.81;93.96;100427.77;105234;1315;139710;-59
2021/12/15 07:28:17;;;;;;;8.30;5.40;;;;;;;-0.80;93.71;100429.20;106346;1316;22529;-60
2021/12/15 07:30:46;;;;;;;8.10;5.40;;;;;;;-0.79;93.74;100426.77;106096;1315;139767;-60
2021/12/15 07:33:15;;;;;;;8.40;5.20;;;;;;;-0.77;93.87;100431.00;106334;1316;22403;-60
2021/12/15 07:35:43;;;;;;;13.50;8.40;;;;;;;-0.73;93.63;100435.58;106225;1316;138212;-60
2021/12/15 07:38:12;;;;;;;9.80;6.00;;;;;;;-0.71;93.67;100434.27;106321;1316;22472;-60
2021/12/15 07:40:41;;;;;;;10.90;6.60;;;;;;;-0.67;93.27;100440.70;106282;1316;22465;-59
2021/12/15 07:43:13;;;;;;;8.60;5.70;;;;;;;-0.67;92.80;100442.58;106226;1316;140023;-59
2021/12/15 07:45:52;;;;;;;8.10;4.80;;;;;;;-0.64;92.33;100446.77;106157;1316;22533;-60
2021/12/15 07:48:21;;;;;;;6.30;4.60;;;;;;;-0.61;92.19;100449.61;106208;1316;139503;-60
2021/12/15 07:50:52;;;;;;;8.70;4.90;;;;;;;-0.58;92.13;100454.45;106323;1316;22520;-59
2021/12/15 07:53:20;;;;;;;7.10;3.90;;;;;;;-0.53;91.48;100460.45;106329;1316;22625;-59
2021/12/15 07:55:48;;;;;;;7.40;3.70;;;;;;;-0.52;91.11;100462.20;105189;1315;137982;-53
2021/12/15 07:58:19;;;;;;;6.20;3.40;;;;;;;-0.49;90.84;100465.71;106278;1316;23298;-54
2021/12/15 08:00:47;;;;;;;5.70;2.90;;;;;;;-0.48;90.37;100463.75;106269;1316;138458;-54
2021/12/15 08:03:16;;;;;;;7.00;2.70;;;;;;;-0.47;89.85;100468.17;105833;1314;22451;-54
2021/12/15 08:05:46;;;;;;;9.90;4.60;;;;;;;-0.46;89.63;100472.13;106250;1315;139043;-54
2021/12/15 08:08:15;;;;;;;10.30;4.70;;;;;;;-0.44;88.98;100469.26;106398;1316;22367;-54
2021/12/15 08:10:43;;;;;;;7.40;4.50;;;;;;;-0.43;88.63;100468.96;105521;1321;22510;-54
2021/12/15 08:13:12;;;;;;;10.00;4.50;;;;;;;-0.45;88.22;100467.61;106187;1315;138921;-54
2021/12/15 08:15:40;;;;;;;5.50;3.30;;;;;;;-0.47;87.95;100467.41;106373;1317;22423;-54
2021/12/15 08:18:08;;;;;;;5.90;4.00;;;;;;;-0.49;87.77;100466.70;106249;1315;138316;-54
2021/12/15 08:20:36;;;;;;;8.00;3.50;;;;;;;-0.49;87.47;100473.31;106282;1316;23281;-54
2021/12/15 08:23:04;;;;;;;4.00;2.60;;;;;;;-0.50;87.35;100475.75;106432;1315;22394;-54
2021/12/15 08:25:34;;;;;;;6.20;3.30;;;;;;;-0.50;87.18;100475.95;106244;1315;137993;-59
2021/12/15 08:28:03;;;;;;;7.90;3.80;;;;;;;-0.50;86.94;100476.27;106043;1315;22470;-59
2021/12/15 08:30:32;;;;;;;9.00;3.40;;;;;;;-0.48;87.12;100480.19;106285;1315;138785;-59
2021/12/15 08:33:03;;;;;;;13.80;4.40;;;;;;;-0.47;86.87;100477.18;106013;1315;22390;-59
2021/12/15 08:35:58;;;;;;;13.40;4.40;;;;;;;-0.46;86.73;100475.85;106325;1316;139156;-59
2021/12/15 08:38:26;;;;;;;9.50;4.20;;;;;;;-0.45;86.10;100474.34;106421;1315;23175;-59
2021/12/15 08:40:54;;;;;;;13.00;4.90;;;;;;;-0.45;85.98;100470.09;106040;1320;22591;-59
2021/12/15 08:43:23;;;;;;;17.90;4.90;;;;;;;-0.46;85.91;100468.89;106284;1315;138880;-59
2021/12/15 08:46:01;;;;;;;14.30;5.10;;;;;;;-0.46;85.74;100470.82;106410;1315;22386;-59
2021/12/15 08:48:30;;;;;;;23.80;7.50;;;;;;;-0.44;85.64;100466.91;106310;1315;138217;-59
2021/12/15 08:50:59;;;;;;;12.70;5.70;;;;;;;-0.42;85.39;100468.46;106279;1315;23154;-59
2021/12/15 08:53:27;;;;;;;8.20;4.00;;;;;;;-0.42;84.96;100470.37;106406;1315;23414;-59
2021/12/15 08:55:55;;;;;;;4.00;2.80;;;;;;;-0.41;84.89;100465.83;106223;1315;137760;-59
2021/12/15 08:58:23;;;;;;;9.50;3.50;;;;;;;-0.40;84.40;100465.90;106407;1316;22500;-59
2021/12/15 09:00:53;;;;;;;4.90;3.70;;;;;;;-0.40;83.92;100464.83;106276;1316;137811;-59
2021/12/15 09:03:21;;;;;;;7.80;4.30;;;;;;;-0.42;83.49;100461.00;106182;1316;213482;-59
2021/12/15 09:06:08;;;;;;;4.80;2.80;;;;;;;-0.47;83.57;100458.51;106170;1315;140618;-59
2021/12/15 09:08:37;;;;;;;3.20;2.50;;;;;;;-0.48;83.53;100457.60;106397;1315;22365;-59
2021/12/15 09:11:07;;;;;;;3.10;2.30;;;;;;;-0.49;83.76;100451.73;106429;1320;22420;-59
2021/12/15 09:13:37;;;;;;;4.90;2.90;;;;;;;-0.47;83.70;100451.17;106274;1315;139585;-59
2021/12/15 09:16:06;;;;;;;4.80;3.50;;;;;;;-0.45;83.56;100447.20;106418;1315;23257;-59
2021/12/15 09:18:35;;;;;;;6.10;4.50;;;;;;;-0.45;83.52;100443.25;106324;1315;138211;-59
2021/12/15 09:21:03;;;;;;;5.90;3.50;;;;;;;-0.46;83.40;100439.23;106339;1315;22292;-59
2021/12/15 09:23:32;;;;;;;5.10;3.20;;;;;;;-0.49;83.21;100441.70;106410;1315;22615;-59
2021/12/15 09:26:00;;;;;;;5.80;3.40;;;;;;;-0.49;83.31;100441.36;104926;1315;138221;-58
2021/12/15 09:28:30;;;;;;;4.80;3.10;;;;;;;-0.50;83.28;100442.36;106350;1316;23409;-60
2021/12/15 09:30:58;;;;;;;5.00;3.00;;;;;;;-0.51;83.43;100442.83;106313;1315;139116;-59
2021/12/15 09:33:29;;;;;;;5.20;3.40;;;;;;;-0.52;82.99;100440.98;106465;1315;22442;-59
2021/12/15 09:35:57;;;;;;;5.90;3.90;;;;;;;-0.52;83.25;100440.82;106124;1318;138395;-60
2021/12/15 09:38:25;;;;;;;9.70;5.50;;;;;;;-0.53;83.51;100439.34;106397;1315;22617;-59
2021/12/15 09:40:56;;;;;;;13.90;6.10;;;;;;;-0.53;83.44;100442.35;106410;1316;22472;-59
2021/12/15 09:43:28;;;;;;;10.30;5.30;;;;;;;-0.53;84.02;100443.98;106285;1315;140395;-59
2021/12/15 09:46:05;;;;;;;16.80;7.00;;;;;;;-0.52;84.12;100438.47;106441;1316;23247;-59
2021/12/15 10:19:20;;;;;;;5.30;3.30;;;;;;;-0.74;82.92;100429.80;105894;1316;138924;-58
2021/12/15 10:22:03;;;;;;;5.80;4.30;;;;;;;-0.80;82.92;100422.74;106377;1315;22469;-59
2021/12/15 10:24:34;;;;;;;6.70;5.20;;;;;;;-0.83;83.33;100421.64;106212;1316;138858;-59
2021/12/15 10:27:07;;;;;;;6.00;4.10;;;;;;;-0.86;83.50;100421.45;106357;1315;23371;-59
2021/12/15 10:29:35;;;;;;;8.90;4.70;;;;;;;-0.89;83.73;100423.63;106358;1315;23359;-59
2021/12/15 10:32:05;;;;;;;6.60;4.40;;;;;;;-0.92;83.94;100422.87;105983;1317;139399;-58
2021/12/15 10:34:34;;;;;;;9.00;5.50;;;;;;;-0.95;84.04;100421.73;106372;1315;23315;-59
2021/12/15 10:37:04;;;;;;;12.50;7.00;;;;;;;-0.97;84.19;100415.48;106251;1315;138120;-59
2021/12/15 10:39:32;;;;;;;11.60;7.30;;;;;;;-0.96;84.40;100415.64;106293;1316;22406;-59
2021/12/15 10:42:00;;;;;;;22.00;9.30;;;;;;;-0.96;84.50;100415.80;106208;1316;139923;-59
2021/12/15 10:44:28;;;;;;;11.10;7.00;;;;;;;-0.97;84.45;100414.77;105426;1316;23614;-59
2021/12/15 10:46:59;;;;;;;9.90;6.90;;;;;;;-0.97;84.53;100412.98;105225;1316;22463;-59
2021/12/15 10:49:33;;;;;;;33.80;14.40;;;;;;;-0.99;84.52;100411.27;106223;1315;138072;-59
2021/12/15 10:52:09;;;;;;;15.40;8.30;;;;;;;-0.99;84.65;100413.64;106346;1316;23089;-59
2021/12/15 10:54:50;;;;;;;16.00;9.00;;;;;;;-1.01;84.51;100408.63;106226;1316;140675;-59
2021/12/15 10:57:21;;;;;;;7.70;5.60;;;;;;;-0.98;84.56;100408.84;102647;1315;24104;-58
2021/12/15 10:59:53;;;;;;;8.20;4.60;;;;;;;-0.97;84.29;100410.52;102139;1315;22624;-58
2021/12/15 11:02:38;;;;;;;6.90;5.00;;;;;;;-1.00;84.17;100409.14;106321;1315;23436;-59
2021/12/15 11:05:20;;;;;;;16.10;7.00;;;;;;;-1.02;84.23;100410.05;106338;1315;22562;-59
2021/12/15 11:07:54;;;;;;;121.50;29.30;;;;;;;-1.02;84.64;100406.64;106243;1315;139714;-59
2021/12/15 11:10:26;;;;;;;28.20;11.30;;;;;;;-0.99;84.79;100405.56;106248;1315;22376;-59
2021/12/15 11:12:59;;;;;;;17.70;7.60;;;;;;;-0.99;84.56;100405.52;106228;1315;138714;-59
2021/12/15 11:15:40;;;;;;;19.40;8.80;;;;;;;-1.00;84.51;100406.55;106397;1315;22407;-59
2021/12/15 11:18:22;;;;;;;14.10;8.40;;;;;;;-1.02;84.35;100408.64;106324;1315;22491;-59
2021/12/15 11:21:00;;;;;;;9.00;5.90;;;;;;;-1.05;84.14;100409.73;106248;1315;140523;-59
2021/12/15 11:23:30;;;;;;;8.00;5.80;;;;;;;-1.09;84.41;100408.88;106351;1315;22483;-59
2021/12/15 11:26:03;;;;;;;8.00;6.00;;;;;;;-1.12;84.21;100413.30;106230;1315;137972;-59
2021/12/15 11:28:37;;;;;;;9.50;5.80;;;;;;;-1.16;84.12;100414.97;106292;1315;22876;-60
2021/12/15 11:31:13;;;;;;;8.60;5.40;;;;;;;-1.21;83.88;100410.20;106275;1316;139158;-58
2021/12/15 11:33:53;;;;;;;9.40;7.10;;;;;;;-1.23;84.33;100409.99;105740;1316;22452;-58
2021/12/15 11:36:25;;;;;;;8.80;6.60;;;;;;;-1.23;84.10;100409.68;106381;1315;23311;-59
2021/12/15 11:39:12;;;;;;;7.90;5.70;;;;;;;-1.23;84.35;100412.89;106285;1316;137712;-59
2021/12/15 11:41:41;;;;;;;6.60;5.00;;;;;;;-1.24;83.94;100412.25;106358;1315;22507;-58
2021/12/15 11:44:17;;;;;;;9.70;6.40;;;;;;;-1.25;84.15;100406.69;106234;1315;138093;-59
2021/12/15 11:47:01;;;;;;;11.60;6.00;;;;;;;-1.29;83.75;100409.12;106357;1315;22409;-59
2021/12/15 11:49:31;;;;;;;8.40;5.60;;;;;;;-1.35;83.90;100407.19;106214;1315;138428;-58
2021/12/15 11:52:06;;;;;;;7.60;5.70;;;;;;;-1.41;83.67;100407.98;106328;1316;23581;-58
2021/12/15 11:54:42;;;;;;;9.50;5.20;;;;;;;-1.45;83.66;100411.23;106279;1316;140495;-57
2021/12/15 11:57:29;;;;;;;7.90;5.90;;;;;;;-1.46;83.70;100411.92;102888;1316;22697;-54
2021/12/15 12:00:04;;;;;;;4.90;3.70;;;;;;;-1.45;84.04;100412.05;102143;1315;25665;-57
2021/12/15 12:02:39;;;;;;;6.10;4.30;;;;;;;-1.45;83.79;100411.62;102085;1316;139030;-56
2021/12/15 12:05:09;;;;;;;9.60;4.10;;;;;;;-1.47;83.60;100413.65;106363;1315;22378;-57
2021/12/15 12:07:47;;;;;;;6.20;4.00;;;;;;;-1.48;83.61;100410.02;106150;1315;138425;-58
2021/12/15 12:10:42;;;;;;;9.40;4.60;;;;;;;-1.51;83.60;100408.04;106350;1316;23626;-58
2021/12/15 12:13:15;;;;;;;7.60;4.40;;;;;;;-1.55;83.72;100409.48;106267;1315;138467;-58
2021/12/15 12:15:45;;;;;;;9.50;4.20;;;;;;;-1.58;83.81;100411.54;106338;1315;22534;-58
2021/12/15 12:18:15;;;;;;;5.30;3.90;;;;;;;-1.58;83.96;100412.60;106376;1315;22385;-58
2021/12/15 12:20:45;;;;;;;4.40;2.80;;;;;;;-1.60;84.01;100418.73;106234;1315;139057;-58
2021/12/15 12:23:17;;;;;;;4.10;2.70;;;;;;;-1.60;84.33;100416.42;106321;1316;23144;-58
2021/12/15 12:25:47;;;;;;;3.40;2.00;;;;;;;-1.59;84.06;100415.63;106268;1316;138013;-54
2021/12/15 12:28:36;;;;;;;2.10;1.60;;;;;;;-1.59;84.02;100418.32;106348;1316;22458;-54
2021/12/15 12:31:16;;;;;;;2.50;1.60;;;;;;;-1.60;83.88;100420.33;106242;1315;139427;-54
2021/12/15 12:33:44;;;;;;;2.90;2.00;;;;;;;-1.58;83.65;100427.06;106355;1316;24413;-54
2021/12/15 12:36:20;;;;;;;6.00;2.70;;;;;;;-1.56;83.57;100419.36;106244;1315;22232;-55
2021/12/15 12:38:54;;;;;;;7.00;4.00;;;;;;;-1.55;83.79;100419.80;106240;1316;138791;-54
2021/12/15 12:41:26;;;;;;;4.90;2.60;;;;;;;-1.53;83.64;100418.04;106271;1315;22429;-55
2021/12/15 12:43:56;;;;;;;4.10;2.50;;;;;;;-1.51;83.73;100418.50;106241;1315;138025;-55
2021/12/15 12:46:53;;;;;;;4.70;3.20;;;;;;;-1.48;83.76;100420.16;106343;1315;22519;-55
2021/12/15 12:49:52;;;;;;;5.40;3.20;;;;;;;-1.46;84.04;100412.45;106252;1316;138488;-55
2021/12/15 13:00:55;;;;;;;7.00;3.60;;;;;;;-1.43;84.64;100422.51;101998;1315;138111;-58
2021/12/15 13:06:41;;;;;;;8.90;3.60;;;;;;;-1.35;85.01;100428.41;99362;1351;546188;-59